createdAt,value
2022-12-19T00:03:33.584Z,43.97
2022-12-19T00:06:04.282Z,44.38
2022-12-19T00:08:31.223Z,42.83
2022-12-19T00:11:01.057Z,48.63
2022-12-19T00:13:31.184Z,46.70
2022-12-19T00:16:26.095Z,43.95
2022-12-19T00:18:55.399Z,45.33
2022-12-19T00:21:24.622Z,49.55
2022-12-19T00:23:51.898Z,45.78
2022-12-19T00:26:20.450Z,40.80
2022-12-19T00:28:49.751Z,48.17
2022-12-19T00:31:18.447Z,45.35
2022-12-19T00:33:45.342Z,41.47
2022-12-19T00:36:15.041Z,41.85
2022-12-19T00:38:44.161Z,42.58
2022-12-19T00:41:14.171Z,41.50
2022-12-19T00:43:44.161Z,43.67
2022-12-19T00:46:14.084Z,42.42
2022-12-19T00:48:42.281Z,45.42
2022-12-19T00:51:15.862Z,43.50
2022-12-19T00:53:43.384Z,44.08
2022-12-19T00:56:19.181Z,43.63
2022-12-19T00:58:47.381Z,42.20
2022-12-19T01:01:27.363Z,41.97
2022-12-19T01:04:26.553Z,47.28
2022-12-19T01:06:41.311Z,45.20
2022-12-19T01:09:10.391Z,44.60
2022-12-19T01:12:03.211Z,41.60
2022-12-19T01:14:29.904Z,40.38
2022-12-19T01:16:56.643Z,42.35
2022-12-19T01:19:23.387Z,42.17
2022-12-19T01:21:50.114Z,44.88
2022-12-19T01:24:19.242Z,45.75
2022-12-19T01:26:46.684Z,42.67
2022-12-19T01:29:13.452Z,42.30
2022-12-19T01:31:40.280Z,43.78
2022-12-19T01:34:07.101Z,43.67
2022-12-19T01:36:34.940Z,45.20
2022-12-19T01:39:06.769Z,46.17
2022-12-19T01:41:33.543Z,45.63
2022-12-19T01:44:01.773Z,51.30
2022-12-19T01:46:44.717Z,46.05
2022-12-19T01:49:20.929Z,45.78
2022-12-19T01:51:53.869Z,46.83
2022-12-19T01:54:25.620Z,46.60
2022-12-19T01:56:55.274Z,45.05
2022-12-19T01:59:46.085Z,48.05
2022-12-19T02:02:48.965Z,48.60
2022-12-19T02:05:15.909Z,46.88
2022-12-19T02:07:44.175Z,49.15
2022-12-19T02:10:11.195Z,46.30
2022-12-19T02:12:41.812Z,49.63
2022-12-19T02:15:09.631Z,49.45
2022-12-19T02:18:01.820Z,50.60
2022-12-19T02:21:08.546Z,48.28
2022-12-19T02:24:00.100Z,40.75
2022-12-19T02:26:35.861Z,43.22
2022-12-19T02:29:28.761Z,51.72
2022-12-19T02:32:12.890Z,45.92
2022-12-19T02:34:44.669Z,49.80
2022-12-19T02:37:18.303Z,48.85
2022-12-19T02:40:05.627Z,50.45
2022-12-19T02:42:37.947Z,47.53
2022-12-19T02:45:08.184Z,43.50
2022-12-19T02:50:04.572Z,44.58
2022-12-19T02:52:31.297Z,48.80
2022-12-19T02:55:03.340Z,46.55
2022-12-19T02:57:33.155Z,45.40
2022-12-19T03:00:14.233Z,43.03
2022-12-19T03:02:46.609Z,45.40
2022-12-19T03:05:49.048Z,47.88
2022-12-19T03:08:43.430Z,40.42
2022-12-19T03:11:14.979Z,52.38
2022-12-19T03:13:44.697Z,43.17
2022-12-19T03:16:12.609Z,43.85
2022-12-19T03:18:40.472Z,42.63
2022-12-19T03:21:15.854Z,43.03
2022-12-19T03:23:44.878Z,42.47
2022-12-19T03:26:17.940Z,41.55
2022-12-19T03:29:03.708Z,38.20
2022-12-19T03:31:33.438Z,41.70
2022-12-19T03:34:20.971Z,40.13
2022-12-19T03:36:53.425Z,42.15
2022-12-19T03:39:22.098Z,46.47
2022-12-19T03:42:09.471Z,39.40
2022-12-19T03:44:39.620Z,39.38
2022-12-19T03:49:37.891Z,40.72
2022-12-19T03:52:23.415Z,42.40
2022-12-19T03:55:13.494Z,43.83
2022-12-19T03:58:02.515Z,38.53
2022-12-19T04:00:35.645Z,39.17
2022-12-19T04:03:04.250Z,36.90
2022-12-19T04:05:32.988Z,38.50
2022-12-19T04:08:04.241Z,36.08
2022-12-19T04:10:38.521Z,39.58
2022-12-19T04:13:12.124Z,41.20
2022-12-19T04:15:57.833Z,41.72
2022-12-19T04:18:25.086Z,39.72
2022-12-19T04:21:11.827Z,37.63
2022-12-19T04:23:44.094Z,39.13
2022-12-19T04:26:14.126Z,40.40
2022-12-19T04:28:47.150Z,39.22
2022-12-19T04:31:15.563Z,37.28
2022-12-19T04:33:42.719Z,36.42
2022-12-19T04:36:11.146Z,37.00
2022-12-19T04:38:38.064Z,35.08
2022-12-19T04:41:05.015Z,36.08
2022-12-19T04:43:31.795Z,34.67
2022-12-19T04:45:58.580Z,35.40
2022-12-19T04:48:26.151Z,38.97
2022-12-19T04:50:53.204Z,38.63
2022-12-19T04:53:19.902Z,32.42
2022-12-19T04:55:46.701Z,35.72
2022-12-19T04:58:17.618Z,31.10
2022-12-19T05:00:47.098Z,36.60
2022-12-19T05:03:14.849Z,33.70
2022-12-19T05:05:41.685Z,34.30
2022-12-19T05:08:08.974Z,32.55
2022-12-19T05:10:38.014Z,36.83
2022-12-19T05:13:04.778Z,35.47
2022-12-19T05:15:31.537Z,33.05
2022-12-19T05:17:58.281Z,32.28
2022-12-19T05:20:25.099Z,36.38
2022-12-19T05:22:51.843Z,35.08
2022-12-19T05:25:18.578Z,32.90
2022-12-19T05:27:45.309Z,34.28
2022-12-19T05:30:12.396Z,30.63
2022-12-19T05:32:39.182Z,31.85
2022-12-19T05:35:06.374Z,31.52
2022-12-19T05:37:35.247Z,31.60
2022-12-19T05:40:02.233Z,32.42
2022-12-19T05:42:29.035Z,31.33
2022-12-19T05:44:58.119Z,32.47
2022-12-19T05:47:25.240Z,31.58
2022-12-19T05:49:58.096Z,35.55
2022-12-19T05:52:24.872Z,32.47
2022-12-19T05:54:52.080Z,30.92
2022-12-19T05:57:18.891Z,30.52
2022-12-19T05:59:45.604Z,30.88
2022-12-19T06:02:12.476Z,34.45
2022-12-19T06:04:39.274Z,32.38
2022-12-19T06:07:06.011Z,29.55
2022-12-19T06:09:32.771Z,30.40
2022-12-19T06:11:59.547Z,33.50
2022-12-19T06:14:26.828Z,33.13
2022-12-19T06:16:53.557Z,30.85
2022-12-19T06:19:20.876Z,35.10
2022-12-19T06:21:48.641Z,32.35
2022-12-19T06:24:15.718Z,32.88
2022-12-19T06:26:43.032Z,33.65
2022-12-19T06:29:09.775Z,32.95
2022-12-19T06:31:36.654Z,34.38
2022-12-19T06:34:03.511Z,31.95
2022-12-19T06:36:31.599Z,34.55
2022-12-19T06:38:58.973Z,33.08
2022-12-19T06:41:44.647Z,32.05
2022-12-19T06:44:15.510Z,34.90
2022-12-19T06:46:42.839Z,33.25
2022-12-19T06:49:11.351Z,32.78
2022-12-19T06:51:38.234Z,29.63
2022-12-19T06:54:05.259Z,29.50
2022-12-19T06:56:39.579Z,31.58
2022-12-19T06:59:07.533Z,32.05
2022-12-19T07:02:11.360Z,30.60
2022-12-19T07:04:46.704Z,36.03
2022-12-19T07:07:13.964Z,31.52
2022-12-19T07:09:40.999Z,30.67
2022-12-19T07:12:08.323Z,33.78
2022-12-19T07:14:35.214Z,34.80
2022-12-19T07:17:03.345Z,32.40
2022-12-19T07:19:32.059Z,34.90
2022-12-19T07:22:00.527Z,33.00
2022-12-19T07:24:27.516Z,31.42
2022-12-19T07:26:54.318Z,36.15
2022-12-19T07:29:21.071Z,38.25
2022-12-19T07:31:47.863Z,33.60
2022-12-19T07:34:14.668Z,29.35
2022-12-19T07:36:41.452Z,30.75
2022-12-19T07:39:08.314Z,33.05
2022-12-19T07:41:38.743Z,31.33
2022-12-19T07:44:06.804Z,30.95
2022-12-19T07:46:33.539Z,30.77
2022-12-19T07:49:00.923Z,30.13
2022-12-19T07:51:28.537Z,33.55
2022-12-19T07:53:55.308Z,33.88
2022-12-19T07:56:22.262Z,36.38
2022-12-19T07:58:49.154Z,33.40
2022-12-19T08:01:16.090Z,29.02
2022-12-19T08:03:43.029Z,31.05
2022-12-19T08:06:10.304Z,35.50
2022-12-19T08:08:37.994Z,30.35
2022-12-19T08:11:22.491Z,32.35
2022-12-19T08:13:49.718Z,27.70
2022-12-19T08:16:16.547Z,31.92
2022-12-19T08:18:43.593Z,32.80
2022-12-19T08:21:11.190Z,28.13
2022-12-19T08:23:40.951Z,31.10
2022-12-19T08:26:11.657Z,31.73
2022-12-19T08:28:38.672Z,30.35
2022-12-19T08:31:11.182Z,28.38
2022-12-19T08:33:38.604Z,30.80
2022-12-19T08:36:07.083Z,28.70
2022-12-19T08:38:34.967Z,28.23
2022-12-19T08:41:02.136Z,30.30
2022-12-19T08:43:29.265Z,32.88
2022-12-19T08:45:56.529Z,34.47
2022-12-19T08:48:24.043Z,36.42
2022-12-19T08:50:50.850Z,39.95
2022-12-19T08:53:22.763Z,36.30
2022-12-19T08:56:00.625Z,34.67
2022-12-19T08:58:29.989Z,35.30
2022-12-19T09:01:05.228Z,33.47
2022-12-19T09:03:35.268Z,32.28
2022-12-19T09:06:20.214Z,32.33
2022-12-19T09:08:47.161Z,33.90
2022-12-19T09:11:17.182Z,35.22
2022-12-19T09:13:45.100Z,33.28
2022-12-19T09:16:16.207Z,35.42
2022-12-19T09:18:48.788Z,32.45
2022-12-19T09:21:17.367Z,33.15
2022-12-19T09:23:49.105Z,32.85
2022-12-19T09:26:17.446Z,29.67
2022-12-19T09:28:46.457Z,31.00
2022-12-19T09:31:16.621Z,31.67
2022-12-19T09:36:17.143Z,36.08
2022-12-19T09:38:44.406Z,32.60
2022-12-19T09:41:15.835Z,30.25
2022-12-19T09:43:56.475Z,33.22
2022-12-19T09:46:45.468Z,34.63
2022-12-19T09:49:25.153Z,31.10
2022-12-19T09:52:13.215Z,32.08
2022-12-19T09:54:45.978Z,31.10
2022-12-19T09:57:23.792Z,33.80
2022-12-19T10:00:02.254Z,34.00
2022-12-19T10:02:47.720Z,29.65
2022-12-19T10:06:52.534Z,31.75
2022-12-19T10:08:54.985Z,38.10
2022-12-19T10:14:41.911Z,33.22
2022-12-19T10:17:34.316Z,38.45
2022-12-19T10:20:42.773Z,35.92
2022-12-19T10:23:45.626Z,34.83
2022-12-19T10:26:29.938Z,39.55
2022-12-19T10:28:57.074Z,36.90
2022-12-19T10:31:42.003Z,36.28
2022-12-19T10:34:22.609Z,36.15
2022-12-19T10:39:50.837Z,38.33
2022-12-19T10:42:33.693Z,41.03
2022-12-19T10:45:09.931Z,36.22
2022-12-19T10:47:37.372Z,33.65
2022-12-19T10:50:09.526Z,33.28
2022-12-19T10:52:54.676Z,35.25
2022-12-19T10:55:40.553Z,39.08
2022-12-19T10:58:35.189Z,36.33
2022-12-19T11:01:10.483Z,35.03
2022-12-19T11:03:38.988Z,37.05
2022-12-19T11:06:06.566Z,35.55
2022-12-19T11:08:36.172Z,45.88
2022-12-19T11:12:01.940Z,38.20
2022-12-19T11:18:17.128Z,43.25
2022-12-19T11:19:20.740Z,40.13
2022-12-19T11:29:31.227Z,40.60
2022-12-19T11:29:54.651Z,36.85
2022-12-19T11:30:59.586Z,41.30
2022-12-19T11:30:59.586Z,39.13
2022-12-19T11:34:24.144Z,40.05
2022-12-19T11:37:46.555Z,37.07
2022-12-19T11:40:32.850Z,38.63
2022-12-19T11:43:42.683Z,42.80
2022-12-19T11:46:21.720Z,42.00
2022-12-19T11:49:34.968Z,39.72
2022-12-19T11:53:03.285Z,41.08
2022-12-19T11:57:55.495Z,44.47
2022-12-19T12:00:24.896Z,45.80
2022-12-19T12:03:21.667Z,46.40
2022-12-19T12:05:50.291Z,40.63
2022-12-19T12:10:43.594Z,43.63
2022-12-19T12:13:35.590Z,45.92
2022-12-19T12:24:15.910Z,47.05
2022-12-19T12:29:39.843Z,50.28
2022-12-19T12:31:20.597Z,44.22
2022-12-19T12:32:02.522Z,42.08
2022-12-19T12:32:03.192Z,41.83
2022-12-19T12:32:04.668Z,39.72
2022-12-19T12:35:11.082Z,40.42
2022-12-19T12:38:36.851Z,38.35
2022-12-19T12:42:04.044Z,43.72
2022-12-19T12:44:45.825Z,38.35
2022-12-19T12:47:22.742Z,42.08
2022-12-19T12:49:54.909Z,43.80
2022-12-19T12:52:33.692Z,45.20
2022-12-19T12:55:01.867Z,37.08
2022-12-19T12:57:28.788Z,41.13
2022-12-19T13:00:31.713Z,44.75
2022-12-19T13:03:06.159Z,42.03
2022-12-19T13:05:36.674Z,41.70
2022-12-19T13:08:26.204Z,43.72
2022-12-19T13:11:04.168Z,51.10
2022-12-19T13:13:55.136Z,40.63
2022-12-19T13:16:44.833Z,46.13
2022-12-19T13:19:28.431Z,45.13
2022-12-19T13:22:05.157Z,41.92
2022-12-19T13:24:55.065Z,48.30
2022-12-19T13:27:21.862Z,47.58
2022-12-19T13:30:00.517Z,49.05
2022-12-19T13:32:54.663Z,43.15
2022-12-19T13:36:57.367Z,41.67
2022-12-19T13:39:59.747Z,43.92
2022-12-19T13:41:45.555Z,44.10
2022-12-19T13:44:12.505Z,40.50
2022-12-19T13:46:42.660Z,44.17
2022-12-19T13:51:46.796Z,45.97
2022-12-19T13:54:26.991Z,45.22
2022-12-19T13:56:55.556Z,42.95
2022-12-19T13:59:26.839Z,39.58
2022-12-19T14:01:55.077Z,47.88
2022-12-19T14:04:33.577Z,40.33
2022-12-19T14:07:04.043Z,36.42
2022-12-19T14:11:28.592Z,40.75
2022-12-19T14:13:46.862Z,42.60
2022-12-19T14:15:34.506Z,44.25
2022-12-19T14:18:44.666Z,46.83
2022-12-19T14:22:09.946Z,44.95
2022-12-19T14:24:21.739Z,42.22
2022-12-19T14:28:19.132Z,43.90
2022-12-19T14:30:27.901Z,44.97
2022-12-19T14:33:43.683Z,44.60
2022-12-19T14:35:47.805Z,42.22
2022-12-19T14:39:23.844Z,46.35
2022-12-19T14:42:01.077Z,38.58
2022-12-19T14:52:08.041Z,42.15
2022-12-19T14:52:34.220Z,48.67
2022-12-19T14:54:24.731Z,43.35
2022-12-19T14:54:37.574Z,45.22
2022-12-19T14:58:57.638Z,58.85
2022-12-19T15:01:28.157Z,54.38
2022-12-19T15:04:50.341Z,61.15
2022-12-19T15:07:07.233Z,51.28
2022-12-19T15:11:09.296Z,45.15
2022-12-19T15:14:49.362Z,47.33
2022-12-19T15:15:59.290Z,48.40
2022-12-19T15:18:29.272Z,47.25
2022-12-19T15:20:59.357Z,49.80
2022-12-19T15:26:03.845Z,50.15
2022-12-19T15:28:52.639Z,43.67
2022-12-19T15:31:34.982Z,43.75
2022-12-19T15:36:58.303Z,53.35
2022-12-19T15:39:26.730Z,50.25
2022-12-19T15:41:56.440Z,51.85
2022-12-19T15:44:36.812Z,44.50
2022-12-19T15:47:06.711Z,49.17
2022-12-19T15:49:35.373Z,46.42
2022-12-19T15:52:02.949Z,45.63
2022-12-19T15:57:38.634Z,49.65
2022-12-19T16:00:08.725Z,45.88
2022-12-19T16:05:25.456Z,48.90
2022-12-19T16:07:52.821Z,80.93
2022-12-19T16:10:19.621Z,52.88
2022-12-19T16:12:53.943Z,50.58
2022-12-19T16:15:29.572Z,55.30
2022-12-19T16:17:58.157Z,49.72
2022-12-19T16:20:28.733Z,48.20
2022-12-19T16:22:55.785Z,47.90
2022-12-19T16:25:27.626Z,51.97
2022-12-19T16:27:58.458Z,53.63
2022-12-19T16:30:33.647Z,50.72
2022-12-19T16:33:00.519Z,45.90
2022-12-19T16:36:02.494Z,55.60
2022-12-19T16:38:16.935Z,54.08
2022-12-19T16:40:44.673Z,54.13
2022-12-19T16:43:17.457Z,47.15
2022-12-19T16:45:45.294Z,49.38
2022-12-19T16:48:21.950Z,48.03
2022-12-19T16:50:49.667Z,51.38
2022-12-19T16:53:17.053Z,53.42
2022-12-19T16:55:45.824Z,53.75
2022-12-19T16:58:20.511Z,51.92
2022-12-19T17:00:47.878Z,54.83
2022-12-19T17:03:27.775Z,56.17
2022-12-19T17:05:55.779Z,53.88
2022-12-19T17:08:23.249Z,52.20
2022-12-19T17:10:50.581Z,50.35
2022-12-19T17:13:21.297Z,50.63
2022-12-19T17:15:56.043Z,50.83
2022-12-19T17:18:35.735Z,55.58
2022-12-19T17:21:02.860Z,53.08
2022-12-19T17:23:32.713Z,55.33
2022-12-19T17:26:00.572Z,49.92
2022-12-19T17:28:28.875Z,56.00
2022-12-19T17:30:57.928Z,53.85
2022-12-19T17:33:36.721Z,52.67
2022-12-19T17:36:06.017Z,50.90
2022-12-19T17:38:33.931Z,51.03
2022-12-19T17:41:00.865Z,55.78
2022-12-19T17:43:27.642Z,52.22
2022-12-19T17:45:54.460Z,49.33
2022-12-19T17:48:33.063Z,52.97
2022-12-19T17:51:00.306Z,46.47
2022-12-19T17:53:27.268Z,52.10
2022-12-19T17:55:54.037Z,46.63
2022-12-19T18:01:29.568Z,49.03
2022-12-19T18:03:56.445Z,50.30
2022-12-19T18:06:23.194Z,47.70
2022-12-19T18:08:50.035Z,53.13
2022-12-19T18:11:26.492Z,48.63
2022-12-19T18:13:54.051Z,49.63
2022-12-19T18:16:27.016Z,47.47
2022-12-19T18:18:54.174Z,50.85
2022-12-19T18:21:24.536Z,47.42
2022-12-19T18:23:51.803Z,49.60
2022-12-19T18:26:19.080Z,52.08
2022-12-19T18:28:46.253Z,48.05
2022-12-19T18:31:16.890Z,52.45
2022-12-19T18:33:46.986Z,48.70
2022-12-19T18:36:24.174Z,48.20
2022-12-19T18:38:52.138Z,51.10
2022-12-19T18:41:19.892Z,48.13
2022-12-19T18:43:47.160Z,45.63
2022-12-19T18:46:36.098Z,51.90
2022-12-19T18:49:03.843Z,59.75
2022-12-19T18:51:30.907Z,49.53
2022-12-19T18:53:57.991Z,63.03
2022-12-19T18:56:24.769Z,48.92
2022-12-19T18:58:51.642Z,54.28
2022-12-19T19:01:22.714Z,46.72
2022-12-19T19:03:55.351Z,46.47
2022-12-19T19:06:28.299Z,51.35
2022-12-19T19:08:59.309Z,45.75
2022-12-19T19:11:27.038Z,53.05
2022-12-19T19:13:53.923Z,51.35
2022-12-19T19:16:24.912Z,50.25
2022-12-19T19:18:56.501Z,50.58
2022-12-19T19:21:27.873Z,48.33
2022-12-19T19:24:04.177Z,48.47
2022-12-19T19:26:31.219Z,49.15
2022-12-19T19:28:59.737Z,47.95
2022-12-19T19:31:29.347Z,49.65
2022-12-19T19:34:01.343Z,46.83
2022-12-19T19:36:31.713Z,53.65
2022-12-19T19:38:58.780Z,49.65
2022-12-19T19:41:30.196Z,56.50
2022-12-19T19:43:58.978Z,54.63
2022-12-19T19:46:27.440Z,52.60
2022-12-19T19:48:54.821Z,58.92
2022-12-19T19:51:21.892Z,61.20
2022-12-19T19:53:49.351Z,49.95
2022-12-19T19:56:16.692Z,55.83
2022-12-19T19:58:43.497Z,55.67
2022-12-19T20:01:14.650Z,60.85
2022-12-19T20:03:45.382Z,61.95
2022-12-19T20:06:12.706Z,53.50
2022-12-19T20:08:40.796Z,56.95
2022-12-19T20:11:11.122Z,53.65
2022-12-19T20:13:38.724Z,62.53
2022-12-19T20:16:08.782Z,52.85
2022-12-19T20:21:05.595Z,57.25
2022-12-19T20:23:36.956Z,56.00
2022-12-19T20:26:05.612Z,56.10
2022-12-19T20:28:33.150Z,58.53
2022-12-19T20:31:00.099Z,54.78
2022-12-19T20:33:27.366Z,55.67
2022-12-19T20:36:06.314Z,59.55
2022-12-19T20:38:33.394Z,61.88
2022-12-19T20:41:00.362Z,62.10
2022-12-19T20:43:27.176Z,56.83
2022-12-19T20:46:01.898Z,57.88
2022-12-19T20:48:28.763Z,57.78
2022-12-19T20:50:59.870Z,55.28
2022-12-19T20:53:27.307Z,60.75
2022-12-19T20:55:58.145Z,60.13
2022-12-19T20:58:30.280Z,56.75
2022-12-19T21:01:02.705Z,57.58
2022-12-19T21:03:30.474Z,56.90
2022-12-19T21:05:57.913Z,57.83
2022-12-19T21:08:25.920Z,57.22
2022-12-19T21:10:53.428Z,59.92
2022-12-19T21:13:21.531Z,56.75
2022-12-19T21:15:55.522Z,64.10
2022-12-19T21:18:23.428Z,60.75
2022-12-19T21:20:52.588Z,59.72
2022-12-19T21:23:19.723Z,54.90
2022-12-19T21:25:46.467Z,55.70
2022-12-19T21:28:13.581Z,62.88
2022-12-19T21:30:40.357Z,57.22
2022-12-19T21:33:07.151Z,61.53
2022-12-19T21:35:34.833Z,57.67
2022-12-19T21:38:01.979Z,63.13
2022-12-19T21:40:28.714Z,61.60
2022-12-19T21:42:55.505Z,54.17
2022-12-19T21:45:22.267Z,58.58
2022-12-19T21:47:49.120Z,59.65
2022-12-19T21:50:15.893Z,53.38
2022-12-19T21:52:42.650Z,60.97
2022-12-19T21:55:10.033Z,60.58
2022-12-19T21:57:41.187Z,58.95
2022-12-19T22:00:10.694Z,58.97
2022-12-19T22:02:37.627Z,64.93
2022-12-19T22:05:05.736Z,50.92
2022-12-19T22:07:33.277Z,55.15
2022-12-19T22:10:00.262Z,54.97
2022-12-19T22:12:27.024Z,59.63
2022-12-19T22:14:53.762Z,54.83
2022-12-19T22:17:20.495Z,54.65
2022-12-19T22:19:47.266Z,60.63
2022-12-19T22:22:14.179Z,54.45
2022-12-19T22:24:40.931Z,59.30
2022-12-19T22:27:07.714Z,57.42
2022-12-19T22:29:36.732Z,51.30
2022-12-19T22:32:04.855Z,57.05
2022-12-19T22:34:31.689Z,57.13
2022-12-19T22:36:58.450Z,56.67
2022-12-19T22:39:25.258Z,54.40
2022-12-19T22:41:52.195Z,54.78
2022-12-19T22:44:21.715Z,59.33
2022-12-19T22:46:49.330Z,52.65
2022-12-19T22:49:16.384Z,49.92
2022-12-19T22:51:44.337Z,59.28
2022-12-19T22:54:13.208Z,54.22
2022-12-19T22:56:41.994Z,58.17
2022-12-19T22:59:11.188Z,55.33
2022-12-19T23:01:42.712Z,55.10
2022-12-19T23:04:12.851Z,53.80
2022-12-19T23:06:39.928Z,62.97
2022-12-19T23:09:08.255Z,53.25
2022-12-19T23:11:37.539Z,51.05
2022-12-19T23:14:06.514Z,51.43
2022-12-19T23:16:33.655Z,49.90
2022-12-19T23:19:00.655Z,53.65
2022-12-19T23:21:27.988Z,49.67
2022-12-19T23:23:55.843Z,59.95
2022-12-19T23:26:30.112Z,54.45
2022-12-19T23:28:59.845Z,49.35
2022-12-19T23:31:27.932Z,55.65
2022-12-19T23:33:56.075Z,52.92
2022-12-19T23:36:52.661Z,50.00
2022-12-19T23:39:11.855Z,52.45
2022-12-19T23:41:39.377Z,48.75
2022-12-19T23:44:06.553Z,48.97
2022-12-19T23:46:33.300Z,53.45
2022-12-19T23:49:00.118Z,51.38
2022-12-19T23:51:28.440Z,53.60
2022-12-19T23:53:56.103Z,45.95
2022-12-19T23:56:25.818Z,48.92
2022-12-19T23:58:53.329Z,54.47
